sensor_id;sensor_type;location;lat;lon;timestamp;P1;durP1;ratioP1;P2;durP2;ratioP2
32082;SDS011;18597;48.328;7.932;2023-02-21T00:02:14;7.33;;;5.77;;
32082;SDS011;18597;48.328;7.932;2023-02-21T00:05:00;14.40;;;7.37;;
32082;SDS011;18597;48.328;7.932;2023-02-21T00:07:45;13.80;;;7.47;;
32082;SDS011;18597;48.328;7.932;2023-02-21T00:10:31;13.07;;;7.40;;
32082;SDS011;18597;48.328;7.932;2023-02-21T00:13:17;13.40;;;7.07;;
32082;SDS011;18597;48.328;7.932;2023-02-21T00:16:03;17.43;;;8.37;;
32082;SDS011;18597;48.328;7.932;2023-02-21T00:18:49;11.30;;;7.13;;
32082;SDS011;18597;48.328;7.932;2023-02-21T00:21:34;9.57;;;5.87;;
32082;SDS011;18597;48.328;7.932;2023-02-21T00:24:20;13.90;;;7.03;;
32082;SDS011;18597;48.328;7.932;2023-02-21T00:27:06;9.30;;;5.43;;
32082;SDS011;18597;48.328;7.932;2023-02-21T00:29:52;5.87;;;4.53;;
32082;SDS011;18597;48.328;7.932;2023-02-21T00:32:37;10.83;;;4.97;;
32082;SDS011;18597;48.328;7.932;2023-02-21T00:35:23;5.87;;;5.47;;
32082;SDS011;18597;48.328;7.932;2023-02-21T00:38:09;6.93;;;5.23;;
32082;SDS011;18597;48.328;7.932;2023-02-21T00:40:55;7.00;;;4.90;;
32082;SDS011;18597;48.328;7.932;2023-02-21T00:43:41;8.00;;;4.50;;
32082;SDS011;18597;48.328;7.932;2023-02-21T00:46:27;8.57;;;6.13;;
32082;SDS011;18597;48.328;7.932;2023-02-21T00:49:13;7.97;;;4.80;;
32082;SDS011;18597;48.328;7.932;2023-02-21T00:51:59;5.43;;;4.97;;
32082;SDS011;18597;48.328;7.932;2023-02-21T00:54:45;13.30;;;5.47;;
32082;SDS011;18597;48.328;7.932;2023-02-21T00:57:30;6.93;;;5.00;;
32082;SDS011;18597;48.328;7.932;2023-02-21T01:00:17;8.47;;;5.83;;
32082;SDS011;18597;48.328;7.932;2023-02-21T01:03:07;13.10;;;5.40;;
32082;SDS011;18597;48.328;7.932;2023-02-21T01:05:54;10.90;;;5.90;;
32082;SDS011;18597;48.328;7.932;2023-02-21T01:08:41;10.80;;;5.70;;
32082;SDS011;18597;48.328;7.932;2023-02-21T01:11:29;11.00;;;6.03;;
32082;SDS011;18597;48.328;7.932;2023-02-21T01:14:16;24.93;;;5.90;;
32082;SDS011;18597;48.328;7.932;2023-02-21T01:17:02;12.47;;;4.23;;
32082;SDS011;18597;48.328;7.932;2023-02-21T01:19:48;6.70;;;4.77;;
32082;SDS011;18597;48.328;7.932;2023-02-21T01:22:33;6.83;;;5.20;;
32082;SDS011;18597;48.328;7.932;2023-02-21T01:25:19;5.30;;;3.83;;
32082;SDS011;18597;48.328;7.932;2023-02-21T01:28:05;5.60;;;5.00;;
32082;SDS011;18597;48.328;7.932;2023-02-21T01:30:51;6.23;;;3.80;;
32082;SDS011;18597;48.328;7.932;2023-02-21T01:33:38;7.77;;;4.53;;
32082;SDS011;18597;48.328;7.932;2023-02-21T01:36:25;5.07;;;3.83;;
32082;SDS011;18597;48.328;7.932;2023-02-21T01:39:12;6.13;;;4.10;;
32082;SDS011;18597;48.328;7.932;2023-02-21T01:41:58;4.93;;;4.23;;
32082;SDS011;18597;48.328;7.932;2023-02-21T01:44:45;4.77;;;4.40;;
32082;SDS011;18597;48.328;7.932;2023-02-21T01:47:32;5.50;;;4.07;;
32082;SDS011;18597;48.328;7.932;2023-02-21T01:50:21;5.97;;;3.30;;
32082;SDS011;18597;48.328;7.932;2023-02-21T01:53:13;5.80;;;4.10;;
32082;SDS011;18597;48.328;7.932;2023-02-21T01:56:04;4.10;;;3.70;;
32082;SDS011;18597;48.328;7.932;2023-02-21T01:58:52;5.30;;;4.43;;
32082;SDS011;18597;48.328;7.932;2023-02-21T02:01:51;3.53;;;3.13;;
32082;SDS011;18597;48.328;7.932;2023-02-21T02:04:48;6.73;;;4.57;;
32082;SDS011;18597;48.328;7.932;2023-02-21T02:07:35;5.30;;;3.90;;
32082;SDS011;18597;48.328;7.932;2023-02-21T02:10:22;5.90;;;4.13;;
32082;SDS011;18597;48.328;7.932;2023-02-21T02:15:48;8.90;;;3.70;;
32082;SDS011;18597;48.328;7.932;2023-02-21T02:18:50;7.73;;;3.30;;
32082;SDS011;18597;48.328;7.932;2023-02-21T02:24:59;5.10;;;3.10;;
32082;SDS011;18597;48.328;7.932;2023-02-21T02:27:59;4.17;;;3.63;;
32082;SDS011;18597;48.328;7.932;2023-02-21T02:30:56;8.40;;;4.37;;
32082;SDS011;18597;48.328;7.932;2023-02-21T02:37:46;3.83;;;3.50;;
32082;SDS011;18597;48.328;7.932;2023-02-21T02:43:38;7.87;;;3.50;;
32082;SDS011;18597;48.328;7.932;2023-02-21T02:46:17;3.37;;;3.10;;
32082;SDS011;18597;48.328;7.932;2023-02-21T02:48:52;3.30;;;3.00;;
32082;SDS011;18597;48.328;7.932;2023-02-21T02:51:27;7.30;;;3.70;;
32082;SDS011;18597;48.328;7.932;2023-02-21T02:53:54;3.07;;;2.87;;
32082;SDS011;18597;48.328;7.932;2023-02-21T02:56:21;8.33;;;3.80;;
32082;SDS011;18597;48.328;7.932;2023-02-21T02:58:51;4.70;;;3.40;;
32082;SDS011;18597;48.328;7.932;2023-02-21T03:10:44;3.50;;;3.20;;
32082;SDS011;18597;48.328;7.932;2023-02-21T03:13:55;4.00;;;3.60;;
32082;SDS011;18597;48.328;7.932;2023-02-21T03:16:22;3.37;;;3.17;;
32082;SDS011;18597;48.328;7.932;2023-02-21T03:18:57;4.60;;;4.00;;
32082;SDS011;18597;48.328;7.932;2023-02-21T03:21:33;4.20;;;2.70;;
32082;SDS011;18597;48.328;7.932;2023-02-21T03:24:07;5.03;;;3.67;;
32082;SDS011;18597;48.328;7.932;2023-02-21T03:26:37;9.03;;;3.53;;
32082;SDS011;18597;48.328;7.932;2023-02-21T03:29:07;3.87;;;3.37;;
32082;SDS011;18597;48.328;7.932;2023-02-21T03:31:36;4.03;;;3.10;;
32082;SDS011;18597;48.328;7.932;2023-02-21T03:34:09;6.67;;;3.37;;
32082;SDS011;18597;48.328;7.932;2023-02-21T03:36:37;3.87;;;3.37;;
32082;SDS011;18597;48.328;7.932;2023-02-21T03:39:03;4.80;;;4.37;;
32082;SDS011;18597;48.328;7.932;2023-02-21T03:41:29;4.93;;;3.67;;
32082;SDS011;18597;48.328;7.932;2023-02-21T03:43:55;5.10;;;3.73;;
32082;SDS011;18597;48.328;7.932;2023-02-21T03:46:21;5.27;;;3.77;;
32082;SDS011;18597;48.328;7.932;2023-02-21T03:48:47;3.50;;;3.20;;
32082;SDS011;18597;48.328;7.932;2023-02-21T03:51:13;5.57;;;3.57;;
32082;SDS011;18597;48.328;7.932;2023-02-21T03:53:39;6.80;;;3.60;;
32082;SDS011;18597;48.328;7.932;2023-02-21T03:56:05;3.57;;;3.37;;
32082;SDS011;18597;48.328;7.932;2023-02-21T03:58:32;3.90;;;3.50;;
32082;SDS011;18597;48.328;7.932;2023-02-21T04:00:57;3.90;;;3.60;;
32082;SDS011;18597;48.328;7.932;2023-02-21T04:03:23;4.17;;;3.43;;
32082;SDS011;18597;48.328;7.932;2023-02-21T04:05:49;4.77;;;4.30;;
32082;SDS011;18597;48.328;7.932;2023-02-21T04:08:15;6.70;;;3.50;;
32082;SDS011;18597;48.328;7.932;2023-02-21T04:10:41;6.73;;;4.57;;
32082;SDS011;18597;48.328;7.932;2023-02-21T04:13:07;6.90;;;5.40;;
32082;SDS011;18597;48.328;7.932;2023-02-21T04:15:34;6.17;;;3.67;;
32082;SDS011;18597;48.328;7.932;2023-02-21T04:18:00;4.40;;;3.80;;
32082;SDS011;18597;48.328;7.932;2023-02-21T04:20:26;7.90;;;4.70;;
32082;SDS011;18597;48.328;7.932;2023-02-21T04:22:52;4.10;;;3.70;;
32082;SDS011;18597;48.328;7.932;2023-02-21T04:25:18;4.43;;;3.77;;
32082;SDS011;18597;48.328;7.932;2023-02-21T04:27:44;4.07;;;3.70;;
32082;SDS011;18597;48.328;7.932;2023-02-21T04:30:10;4.20;;;3.80;;
32082;SDS011;18597;48.328;7.932;2023-02-21T04:32:36;6.10;;;3.80;;
32082;SDS011;18597;48.328;7.932;2023-02-21T04:35:02;5.87;;;4.73;;
32082;SDS011;18597;48.328;7.932;2023-02-21T04:37:28;9.53;;;4.30;;
32082;SDS011;18597;48.328;7.932;2023-02-21T04:39:54;4.43;;;3.97;;
32082;SDS011;18597;48.328;7.932;2023-02-21T04:42:20;4.93;;;3.80;;
32082;SDS011;18597;48.328;7.932;2023-02-21T04:44:45;4.77;;;3.67;;
32082;SDS011;18597;48.328;7.932;2023-02-21T04:47:11;7.93;;;3.43;;
32082;SDS011;18597;48.328;7.932;2023-02-21T04:49:37;7.67;;;3.80;;
32082;SDS011;18597;48.328;7.932;2023-02-21T04:52:03;9.63;;;5.20;;
32082;SDS011;18597;48.328;7.932;2023-02-21T04:54:29;5.10;;;3.97;;
32082;SDS011;18597;48.328;7.932;2023-02-21T04:56:55;11.10;;;4.93;;
32082;SDS011;18597;48.328;7.932;2023-02-21T04:59:20;5.90;;;3.93;;
32082;SDS011;18597;48.328;7.932;2023-02-21T05:01:46;7.35;;;5.40;;
32082;SDS011;18597;48.328;7.932;2023-02-21T05:04:12;8.23;;;4.57;;
32082;SDS011;18597;48.328;7.932;2023-02-21T05:06:38;7.67;;;4.17;;
32082;SDS011;18597;48.328;7.932;2023-02-21T05:09:04;4.03;;;3.33;;
32082;SDS011;18597;48.328;7.932;2023-02-21T05:11:31;4.50;;;4.20;;
32082;SDS011;18597;48.328;7.932;2023-02-21T05:13:58;8.90;;;3.83;;
32082;SDS011;18597;48.328;7.932;2023-02-21T05:16:24;5.10;;;3.90;;
32082;SDS011;18597;48.328;7.932;2023-02-21T05:18:50;8.10;;;4.33;;
32082;SDS011;18597;48.328;7.932;2023-02-21T05:21:17;8.20;;;4.47;;
32082;SDS011;18597;48.328;7.932;2023-02-21T05:23:43;4.87;;;3.50;;
32082;SDS011;18597;48.328;7.932;2023-02-21T05:26:19;4.40;;;4.00;;
32082;SDS011;18597;48.328;7.932;2023-02-21T05:28:49;5.30;;;4.17;;
32082;SDS011;18597;48.328;7.932;2023-02-21T05:31:15;4.97;;;4.00;;
32082;SDS011;18597;48.328;7.932;2023-02-21T05:33:41;7.40;;;3.80;;
32082;SDS011;18597;48.328;7.932;2023-02-21T05:36:07;6.53;;;5.83;;
32082;SDS011;18597;48.328;7.932;2023-02-21T05:38:33;7.20;;;5.93;;
32082;SDS011;18597;48.328;7.932;2023-02-21T05:41:10;6.60;;;6.00;;
32082;SDS011;18597;48.328;7.932;2023-02-21T05:43:36;9.07;;;5.90;;
32082;SDS011;18597;48.328;7.932;2023-02-21T05:46:02;10.03;;;6.23;;
32082;SDS011;18597;48.328;7.932;2023-02-21T05:48:28;9.13;;;4.80;;
32082;SDS011;18597;48.328;7.932;2023-02-21T05:50:54;12.37;;;5.57;;
32082;SDS011;18597;48.328;7.932;2023-02-21T05:53:19;7.33;;;5.43;;
32082;SDS011;18597;48.328;7.932;2023-02-21T05:55:45;9.90;;;5.40;;
32082;SDS011;18597;48.328;7.932;2023-02-21T05:58:11;7.43;;;5.00;;
32082;SDS011;18597;48.328;7.932;2023-02-21T06:00:37;7.23;;;5.73;;
32082;SDS011;18597;48.328;7.932;2023-02-21T06:03:03;7.67;;;5.00;;
32082;SDS011;18597;48.328;7.932;2023-02-21T06:05:29;9.23;;;5.73;;
32082;SDS011;18597;48.328;7.932;2023-02-21T06:07:54;15.13;;;7.10;;
32082;SDS011;18597;48.328;7.932;2023-02-21T06:10:20;6.63;;;5.90;;
32082;SDS011;18597;48.328;7.932;2023-02-21T06:12:46;6.93;;;5.07;;
32082;SDS011;18597;48.328;7.932;2023-02-21T06:15:12;7.53;;;5.10;;
32082;SDS011;18597;48.328;7.932;2023-02-21T06:17:38;17.63;;;7.10;;
32082;SDS011;18597;48.328;7.932;2023-02-21T06:20:05;6.87;;;5.63;;
32082;SDS011;18597;48.328;7.932;2023-02-21T06:22:32;6.53;;;5.70;;
32082;SDS011;18597;48.328;7.932;2023-02-21T06:24:58;13.87;;;5.63;;
32082;SDS011;18597;48.328;7.932;2023-02-21T06:27:24;7.40;;;6.57;;
32082;SDS011;18597;48.328;7.932;2023-02-21T06:29:50;18.03;;;8.20;;
32082;SDS011;18597;48.328;7.932;2023-02-21T06:32:16;14.20;;;8.60;;
32082;SDS011;18597;48.328;7.932;2023-02-21T06:34:42;17.23;;;8.97;;
32082;SDS011;18597;48.328;7.932;2023-02-21T06:37:08;16.70;;;7.80;;
32082;SDS011;18597;48.328;7.932;2023-02-21T06:39:34;17.43;;;9.40;;
32082;SDS011;18597;48.328;7.932;2023-02-21T06:42:02;12.30;;;8.20;;
32082;SDS011;18597;48.328;7.932;2023-02-21T06:44:28;10.87;;;7.90;;
32082;SDS011;18597;48.328;7.932;2023-02-21T06:46:54;11.20;;;8.13;;
32082;SDS011;18597;48.328;7.932;2023-02-21T06:49:20;8.53;;;7.00;;
32082;SDS011;18597;48.328;7.932;2023-02-21T06:51:46;11.80;;;7.87;;
32082;SDS011;18597;48.328;7.932;2023-02-21T06:54:12;12.20;;;8.87;;
32082;SDS011;18597;48.328;7.932;2023-02-21T06:56:38;11.60;;;8.63;;
32082;SDS011;18597;48.328;7.932;2023-02-21T06:59:04;15.90;;;9.60;;
32082;SDS011;18597;48.328;7.932;2023-02-21T07:01:30;12.80;;;8.00;;
32082;SDS011;18597;48.328;7.932;2023-02-21T07:03:56;16.30;;;10.37;;
32082;SDS011;18597;48.328;7.932;2023-02-21T07:06:23;13.07;;;9.10;;
32082;SDS011;18597;48.328;7.932;2023-02-21T07:08:49;16.57;;;9.57;;
32082;SDS011;18597;48.328;7.932;2023-02-21T07:11:15;9.60;;;8.13;;
32082;SDS011;18597;48.328;7.932;2023-02-21T07:13:50;6.33;;;5.73;;
32082;SDS011;18597;48.328;7.932;2023-02-21T07:16:18;7.20;;;5.13;;
32082;SDS011;18597;48.328;7.932;2023-02-21T07:18:45;8.63;;;5.80;;
32082;SDS011;18597;48.328;7.932;2023-02-21T07:21:12;7.60;;;6.77;;
32082;SDS011;18597;48.328;7.932;2023-02-21T07:23:41;7.80;;;5.93;;
32082;SDS011;18597;48.328;7.932;2023-02-21T07:26:09;8.07;;;5.90;;
32082;SDS011;18597;48.328;7.932;2023-02-21T07:28:35;6.27;;;5.77;;
32082;SDS011;18597;48.328;7.932;2023-02-21T07:31:02;18.87;;;11.50;;
32082;SDS011;18597;48.328;7.932;2023-02-21T07:33:28;25.97;;;17.77;;
32082;SDS011;18597;48.328;7.932;2023-02-21T07:35:54;34.13;;;27.53;;
32082;SDS011;18597;48.328;7.932;2023-02-21T07:38:21;28.67;;;21.97;;
32082;SDS011;18597;48.328;7.932;2023-02-21T07:41:00;21.37;;;16.40;;
32082;SDS011;18597;48.328;7.932;2023-02-21T07:43:28;22.90;;;16.70;;
32082;SDS011;18597;48.328;7.932;2023-02-21T07:45:55;17.37;;;11.27;;
32082;SDS011;18597;48.328;7.932;2023-02-21T07:48:22;16.93;;;10.87;;
32082;SDS011;18597;48.328;7.932;2023-02-21T07:50:48;13.37;;;10.23;;
32082;SDS011;18597;48.328;7.932;2023-02-21T07:53:14;13.07;;;10.43;;
32082;SDS011;18597;48.328;7.932;2023-02-21T07:55:40;16.47;;;12.50;;
32082;SDS011;18597;48.328;7.932;2023-02-21T07:58:06;14.10;;;9.50;;
32082;SDS011;18597;48.328;7.932;2023-02-21T08:00:33;14.37;;;9.50;;
32082;SDS011;18597;48.328;7.932;2023-02-21T08:02:59;10.10;;;8.93;;
32082;SDS011;18597;48.328;7.932;2023-02-21T08:05:25;16.40;;;8.90;;
32082;SDS011;18597;48.328;7.932;2023-02-21T08:07:51;11.37;;;10.27;;
32082;SDS011;18597;48.328;7.932;2023-02-21T08:10:19;16.63;;;11.20;;
32082;SDS011;18597;48.328;7.932;2023-02-21T08:12:51;16.90;;;10.87;;
32082;SDS011;18597;48.328;7.932;2023-02-21T08:15:17;12.30;;;10.60;;
32082;SDS011;18597;48.328;7.932;2023-02-21T08:17:44;23.60;;;12.23;;
32082;SDS011;18597;48.328;7.932;2023-02-21T08:20:13;11.93;;;9.60;;
32082;SDS011;18597;48.328;7.932;2023-02-21T08:22:39;7.67;;;6.50;;
32082;SDS011;18597;48.328;7.932;2023-02-21T08:25:05;11.10;;;7.93;;
32082;SDS011;18597;48.328;7.932;2023-02-21T08:27:31;8.97;;;8.00;;
32082;SDS011;18597;48.328;7.932;2023-02-21T08:29:57;11.93;;;8.10;;
32082;SDS011;18597;48.328;7.932;2023-02-21T08:32:23;12.97;;;7.87;;
32082;SDS011;18597;48.328;7.932;2023-02-21T08:34:49;14.07;;;8.20;;
32082;SDS011;18597;48.328;7.932;2023-02-21T08:37:15;10.80;;;8.47;;
32082;SDS011;18597;48.328;7.932;2023-02-21T08:39:45;10.27;;;8.70;;
32082;SDS011;18597;48.328;7.932;2023-02-21T08:42:12;13.90;;;9.17;;
32082;SDS011;18597;48.328;7.932;2023-02-21T08:44:38;11.30;;;8.57;;
32082;SDS011;18597;48.328;7.932;2023-02-21T08:47:07;16.60;;;8.60;;
32082;SDS011;18597;48.328;7.932;2023-02-21T08:49:33;11.97;;;8.90;;
32082;SDS011;18597;48.328;7.932;2023-02-21T08:52:03;11.33;;;8.17;;
32082;SDS011;18597;48.328;7.932;2023-02-21T08:54:30;12.37;;;7.90;;
32082;SDS011;18597;48.328;7.932;2023-02-21T08:56:57;13.17;;;8.97;;
32082;SDS011;18597;48.328;7.932;2023-02-21T08:59:23;11.23;;;8.43;;
32082;SDS011;18597;48.328;7.932;2023-02-21T09:01:49;12.00;;;7.97;;
32082;SDS011;18597;48.328;7.932;2023-02-21T09:04:15;8.00;;;6.90;;
32082;SDS011;18597;48.328;7.932;2023-02-21T09:06:41;8.07;;;6.70;;
32082;SDS011;18597;48.328;7.932;2023-02-21T09:09:06;9.80;;;6.47;;
32082;SDS011;18597;48.328;7.932;2023-02-21T09:11:32;8.90;;;7.00;;
32082;SDS011;18597;48.328;7.932;2023-02-21T09:13:58;8.50;;;7.60;;
32082;SDS011;18597;48.328;7.932;2023-02-21T09:16:25;8.90;;;8.00;;
32082;SDS011;18597;48.328;7.932;2023-02-21T09:18:53;12.50;;;10.07;;
32082;SDS011;18597;48.328;7.932;2023-02-21T09:21:21;14.57;;;9.80;;
32082;SDS011;18597;48.328;7.932;2023-02-21T09:23:48;13.80;;;9.93;;
32082;SDS011;18597;48.328;7.932;2023-02-21T09:26:18;7.80;;;5.83;;
32082;SDS011;18597;48.328;7.932;2023-02-21T09:28:46;5.63;;;5.10;;
32082;SDS011;18597;48.328;7.932;2023-02-21T09:31:11;12.13;;;5.17;;
32082;SDS011;18597;48.328;7.932;2023-02-21T09:33:37;8.03;;;5.53;;
32082;SDS011;18597;48.328;7.932;2023-02-21T09:36:05;8.33;;;7.23;;
32082;SDS011;18597;48.328;7.932;2023-02-21T09:38:33;8.80;;;7.20;;
32082;SDS011;18597;48.328;7.932;2023-02-21T09:41:00;8.40;;;7.47;;
32082;SDS011;18597;48.328;7.932;2023-02-21T09:43:31;13.30;;;8.67;;
32082;SDS011;18597;48.328;7.932;2023-02-21T09:46:03;8.60;;;7.03;;
32082;SDS011;18597;48.328;7.932;2023-02-21T09:48:36;11.63;;;7.93;;
32082;SDS011;18597;48.328;7.932;2023-02-21T09:51:05;10.40;;;7.47;;
32082;SDS011;18597;48.328;7.932;2023-02-21T09:53:34;15.67;;;8.67;;
32082;SDS011;18597;48.328;7.932;2023-02-21T09:56:07;6.77;;;6.00;;
32082;SDS011;18597;48.328;7.932;2023-02-21T09:58:43;13.10;;;7.83;;
32082;SDS011;18597;48.328;7.932;2023-02-21T10:01:16;11.07;;;4.63;;
32082;SDS011;18597;48.328;7.932;2023-02-21T10:07:17;9.20;;;5.23;;
32082;SDS011;18597;48.328;7.932;2023-02-21T10:10:24;6.20;;;5.37;;
32082;SDS011;18597;48.328;7.932;2023-02-21T10:21:51;11.40;;;7.90;;
32082;SDS011;18597;48.328;7.932;2023-02-21T10:24:21;7.60;;;4.40;;
32082;SDS011;18597;48.328;7.932;2023-02-21T10:26:56;6.30;;;4.40;;
32082;SDS011;18597;48.328;7.932;2023-02-21T10:29:45;9.80;;;5.90;;
32082;SDS011;18597;48.328;7.932;2023-02-21T10:32:25;9.03;;;4.80;;
32082;SDS011;18597;48.328;7.932;2023-02-21T10:34:52;11.40;;;6.10;;
32082;SDS011;18597;48.328;7.932;2023-02-21T10:37:23;8.03;;;5.87;;
32082;SDS011;18597;48.328;7.932;2023-02-21T10:40:44;10.63;;;5.40;;
32082;SDS011;18597;48.328;7.932;2023-02-21T10:43:04;11.53;;;6.03;;
32082;SDS011;18597;48.328;7.932;2023-02-21T10:45:42;9.20;;;5.40;;
32082;SDS011;18597;48.328;7.932;2023-02-21T10:48:18;5.73;;;5.17;;
32082;SDS011;18597;48.328;7.932;2023-02-21T10:50:49;10.23;;;5.20;;
32082;SDS011;18597;48.328;7.932;2023-02-21T10:53:33;7.43;;;6.43;;
32082;SDS011;18597;48.328;7.932;2023-02-21T10:56:19;13.77;;;7.20;;
32082;SDS011;18597;48.328;7.932;2023-02-21T10:58:58;12.53;;;7.37;;
32082;SDS011;18597;48.328;7.932;2023-02-21T11:01:31;9.47;;;7.90;;
32082;SDS011;18597;48.328;7.932;2023-02-21T11:04:09;9.13;;;6.20;;
32082;SDS011;18597;48.328;7.932;2023-02-21T11:06:53;11.33;;;5.40;;
32082;SDS011;18597;48.328;7.932;2023-02-21T11:12:22;16.53;;;7.80;;
32082;SDS011;18597;48.328;7.932;2023-02-21T11:17:26;9.73;;;6.10;;
32082;SDS011;18597;48.328;7.932;2023-02-21T11:19:55;7.60;;;6.57;;
32082;SDS011;18597;48.328;7.932;2023-02-21T11:22:37;15.83;;;8.47;;
32082;SDS011;18597;48.328;7.932;2023-02-21T11:25:23;11.60;;;7.00;;
32082;SDS011;18597;48.328;7.932;2023-02-21T11:28:06;11.80;;;6.50;;
32082;SDS011;18597;48.328;7.932;2023-02-21T11:31:02;18.90;;;8.10;;
32082;SDS011;18597;48.328;7.932;2023-02-21T11:33:36;10.37;;;6.60;;
32082;SDS011;18597;48.328;7.932;2023-02-21T11:36:13;7.90;;;5.47;;
32082;SDS011;18597;48.328;7.932;2023-02-21T11:38:44;8.47;;;6.07;;
32082;SDS011;18597;48.328;7.932;2023-02-21T11:41:46;10.47;;;6.10;;
32082;SDS011;18597;48.328;7.932;2023-02-21T11:44:31;6.67;;;5.50;;
32082;SDS011;18597;48.328;7.932;2023-02-21T11:47:37;10.07;;;6.47;;
32082;SDS011;18597;48.328;7.932;2023-02-21T11:49:56;8.83;;;5.33;;
32082;SDS011;18597;48.328;7.932;2023-02-21T11:52:51;6.80;;;5.37;;
32082;SDS011;18597;48.328;7.932;2023-02-21T11:55:30;7.63;;;5.83;;
32082;SDS011;18597;48.328;7.932;2023-02-21T11:58:24;11.97;;;6.17;;
32082;SDS011;18597;48.328;7.932;2023-02-21T12:00:52;4.77;;;4.37;;
32082;SDS011;18597;48.328;7.932;2023-02-21T12:04:22;9.03;;;5.70;;
32082;SDS011;18597;48.328;7.932;2023-02-21T12:07:16;5.70;;;4.67;;
32082;SDS011;18597;48.328;7.932;2023-02-21T12:10:14;4.63;;;4.20;;
32082;SDS011;18597;48.328;7.932;2023-02-21T12:25:32;4.90;;;4.33;;
32082;SDS011;18597;48.328;7.932;2023-02-21T12:35:03;5.40;;;3.70;;
32082;SDS011;18597;48.328;7.932;2023-02-21T12:44:30;3.50;;;3.20;;
32082;SDS011;18597;48.328;7.932;2023-02-21T12:47:18;4.30;;;3.90;;
32082;SDS011;18597;48.328;7.932;2023-02-21T12:49:52;4.70;;;4.30;;
32082;SDS011;18597;48.328;7.932;2023-02-21T12:52:52;9.30;;;5.13;;
32082;SDS011;18597;48.328;7.932;2023-02-21T12:55:39;8.30;;;5.43;;
32082;SDS011;18597;48.328;7.932;2023-02-21T12:58:26;5.20;;;4.80;;
32082;SDS011;18597;48.328;7.932;2023-02-21T13:01:19;5.17;;;4.60;;
32082;SDS011;18597;48.328;7.932;2023-02-21T13:04:12;6.90;;;5.33;;
32082;SDS011;18597;48.328;7.932;2023-02-21T13:07:21;7.43;;;4.90;;
32082;SDS011;18597;48.328;7.932;2023-02-21T13:09:59;4.97;;;4.43;;
32082;SDS011;18597;48.328;7.932;2023-02-21T13:15:23;4.53;;;4.23;;
32082;SDS011;18597;48.328;7.932;2023-02-21T13:18:05;10.30;;;3.97;;
32082;SDS011;18597;48.328;7.932;2023-02-21T13:20:55;8.03;;;4.60;;
32082;SDS011;18597;48.328;7.932;2023-02-21T13:27:24;8.80;;;4.97;;
32082;SDS011;18597;48.328;7.932;2023-02-21T13:30:40;3.97;;;3.77;;
32082;SDS011;18597;48.328;7.932;2023-02-21T13:39:12;22.73;;;5.30;;
32082;SDS011;18597;48.328;7.932;2023-02-21T13:41:49;11.83;;;5.27;;
32082;SDS011;18597;48.328;7.932;2023-02-21T13:44:24;13.33;;;4.03;;
32082;SDS011;18597;48.328;7.932;2023-02-21T13:47:04;10.03;;;5.00;;
32082;SDS011;18597;48.328;7.932;2023-02-21T13:49:41;6.13;;;4.70;;
32082;SDS011;18597;48.328;7.932;2023-02-21T13:52:25;4.87;;;4.40;;
32082;SDS011;18597;48.328;7.932;2023-02-21T14:08:34;9.90;;;5.43;;
32082;SDS011;18597;48.328;7.932;2023-02-21T14:16:21;13.93;;;4.90;;
32082;SDS011;18597;48.328;7.932;2023-02-21T14:19:01;25.60;;;6.00;;
32082;SDS011;18597;48.328;7.932;2023-02-21T14:21:35;19.03;;;3.97;;
32082;SDS011;18597;48.328;7.932;2023-02-21T14:26:48;5.43;;;3.57;;
32082;SDS011;18597;48.328;7.932;2023-02-21T14:32:37;4.37;;;4.00;;
32082;SDS011;18597;48.328;7.932;2023-02-21T14:35:19;11.33;;;4.47;;
32082;SDS011;18597;48.328;7.932;2023-02-21T14:38:15;6.00;;;4.30;;
32082;SDS011;18597;48.328;7.932;2023-02-21T14:40:59;9.90;;;4.67;;
32082;SDS011;18597;48.328;7.932;2023-02-21T14:43:39;4.67;;;3.53;;
32082;SDS011;18597;48.328;7.932;2023-02-21T14:46:31;9.03;;;5.17;;
32082;SDS011;18597;48.328;7.932;2023-02-21T14:50:14;7.50;;;3.30;;
32082;SDS011;18597;48.328;7.932;2023-02-21T14:52:45;5.60;;;4.10;;
32082;SDS011;18597;48.328;7.932;2023-02-21T15:08:16;7.27;;;4.10;;
32082;SDS011;18597;48.328;7.932;2023-02-21T15:10:45;7.37;;;3.87;;
32082;SDS011;18597;48.328;7.932;2023-02-21T15:13:22;4.80;;;3.17;;
32082;SDS011;18597;48.328;7.932;2023-02-21T15:15:58;4.10;;;3.70;;
32082;SDS011;18597;48.328;7.932;2023-02-21T15:18:30;6.27;;;3.90;;
32082;SDS011;18597;48.328;7.932;2023-02-21T15:21:19;3.13;;;2.97;;
32082;SDS011;18597;48.328;7.932;2023-02-21T15:23:45;5.20;;;3.67;;
32082;SDS011;18597;48.328;7.932;2023-02-21T15:26:25;3.73;;;2.93;;
32082;SDS011;18597;48.328;7.932;2023-02-21T15:29:11;5.13;;;3.17;;
32082;SDS011;18597;48.328;7.932;2023-02-21T15:31:43;3.87;;;3.40;;
32082;SDS011;18597;48.328;7.932;2023-02-21T15:34:18;3.60;;;3.27;;
32082;SDS011;18597;48.328;7.932;2023-02-21T15:36:53;7.60;;;4.13;;
32082;SDS011;18597;48.328;7.932;2023-02-21T15:39:28;3.70;;;3.40;;
32082;SDS011;18597;48.328;7.932;2023-02-21T15:42:03;7.77;;;3.90;;
32082;SDS011;18597;48.328;7.932;2023-02-21T15:47:12;14.63;;;10.63;;
32082;SDS011;18597;48.328;7.932;2023-02-21T15:49:44;8.90;;;6.73;;
32082;SDS011;18597;48.328;7.932;2023-02-21T15:52:37;7.17;;;4.40;;
32082;SDS011;18597;48.328;7.932;2023-02-21T15:55:25;22.03;;;10.57;;
32082;SDS011;18597;48.328;7.932;2023-02-21T15:57:59;10.80;;;4.90;;
32082;SDS011;18597;48.328;7.932;2023-02-21T16:00:38;5.00;;;4.50;;
32082;SDS011;18597;48.328;7.932;2023-02-21T16:03:26;7.60;;;3.30;;
32082;SDS011;18597;48.328;7.932;2023-02-21T16:06:44;4.30;;;3.77;;
32082;SDS011;18597;48.328;7.932;2023-02-21T16:11:48;4.80;;;3.37;;
32082;SDS011;18597;48.328;7.932;2023-02-21T16:14:22;9.53;;;4.07;;
32082;SDS011;18597;48.328;7.932;2023-02-21T16:17:33;6.63;;;4.70;;
32082;SDS011;18597;48.328;7.932;2023-02-21T16:19:53;10.77;;;6.40;;
32082;SDS011;18597;48.328;7.932;2023-02-21T16:22:26;9.53;;;6.10;;
32082;SDS011;18597;48.328;7.932;2023-02-21T16:27:49;10.37;;;5.67;;
32082;SDS011;18597;48.328;7.932;2023-02-21T16:30:20;6.13;;;5.33;;
32082;SDS011;18597;48.328;7.932;2023-02-21T16:32:52;18.53;;;4.93;;
32082;SDS011;18597;48.328;7.932;2023-02-21T16:35:24;7.50;;;4.53;;
32082;SDS011;18597;48.328;7.932;2023-02-21T16:37:52;10.00;;;5.63;;
32082;SDS011;18597;48.328;7.932;2023-02-21T16:40:23;8.27;;;4.50;;
32082;SDS011;18597;48.328;7.932;2023-02-21T16:42:53;11.50;;;4.90;;
32082;SDS011;18597;48.328;7.932;2023-02-21T16:45:20;6.63;;;3.90;;
32082;SDS011;18597;48.328;7.932;2023-02-21T16:47:48;10.43;;;4.63;;
32082;SDS011;18597;48.328;7.932;2023-02-21T16:50:22;5.33;;;4.57;;
32082;SDS011;18597;48.328;7.932;2023-02-21T16:52:58;8.00;;;6.43;;
32082;SDS011;18597;48.328;7.932;2023-02-21T16:55:24;9.63;;;7.40;;
32082;SDS011;18597;48.328;7.932;2023-02-21T16:57:53;16.13;;;7.90;;
32082;SDS011;18597;48.328;7.932;2023-02-21T17:00:28;9.03;;;6.20;;
32082;SDS011;18597;48.328;7.932;2023-02-21T17:02:56;9.13;;;6.40;;
32082;SDS011;18597;48.328;7.932;2023-02-21T17:05:22;9.27;;;6.00;;
32082;SDS011;18597;48.328;7.932;2023-02-21T17:07:49;13.97;;;5.60;;
32082;SDS011;18597;48.328;7.932;2023-02-21T17:10:17;10.67;;;5.80;;
32082;SDS011;18597;48.328;7.932;2023-02-21T17:12:44;8.40;;;5.43;;
32082;SDS011;18597;48.328;7.932;2023-02-21T17:15:10;7.57;;;5.17;;
32082;SDS011;18597;48.328;7.932;2023-02-21T17:17:37;8.57;;;5.57;;
32082;SDS011;18597;48.328;7.932;2023-02-21T17:20:05;14.13;;;7.90;;
32082;SDS011;18597;48.328;7.932;2023-02-21T17:22:32;10.70;;;5.93;;
32082;SDS011;18597;48.328;7.932;2023-02-21T17:24:58;8.80;;;5.40;;
32082;SDS011;18597;48.328;7.932;2023-02-21T17:27:24;7.63;;;5.70;;
32082;SDS011;18597;48.328;7.932;2023-02-21T17:29:50;8.70;;;6.30;;
32082;SDS011;18597;48.328;7.932;2023-02-21T17:32:16;9.03;;;5.83;;
32082;SDS011;18597;48.328;7.932;2023-02-21T17:34:42;6.53;;;5.00;;